createdAt,value
2018-05-02T00:00:25.308Z,96917.11
2018-05-02T00:02:54.696Z,96907.14
2018-05-02T00:05:23.813Z,96900.41
2018-05-02T00:07:53.051Z,96899.02
2018-05-02T00:10:24.161Z,96902.60
2018-05-02T00:12:53.457Z,96896.79
2018-05-02T00:15:22.813Z,96882.84
2018-05-02T00:17:52.053Z,96876.91
2018-05-02T00:20:24.803Z,96869.52
2018-05-02T00:22:54.782Z,96868.13
2018-05-02T00:25:28.312Z,96858.98
2018-05-02T00:27:57.549Z,96855.17
2018-05-02T00:30:26.700Z,96850.44
2018-05-02T00:32:55.852Z,96854.77
2018-05-02T00:35:25.056Z,96848.02
2018-05-02T00:37:55.172Z,96847.19
2018-05-02T00:40:25.446Z,96837.41
2018-05-02T00:42:55.263Z,96825.41
2018-05-02T00:45:24.504Z,96824.61
2018-05-02T00:47:53.813Z,96830.38
2018-05-02T00:50:24.259Z,96820.84
2018-05-02T00:52:53.496Z,96826.36
2018-05-02T00:55:23.263Z,96827.16
2018-05-02T00:57:54.549Z,96831.30
2018-05-02T01:00:23.763Z,96829.30
2018-05-02T01:02:53.013Z,96821.52
2018-05-02T01:05:22.929Z,96821.13
2018-05-02T01:07:52.242Z,96821.72
2018-05-02T01:10:23.827Z,96815.91
2018-05-02T01:12:53.024Z,96825.48
2018-05-02T01:15:22.646Z,96818.30
2018-05-02T01:17:52.408Z,96805.58
2018-05-02T01:20:24.259Z,96807.96
2018-05-02T01:22:53.442Z,96806.57
2018-05-02T01:25:27.017Z,96794.84
2018-05-02T01:27:56.461Z,96792.86
2018-05-02T01:30:25.568Z,96794.45
2018-05-02T01:32:54.689Z,96800.58
2018-05-02T01:35:24.726Z,96800.77
2018-05-02T01:37:55.229Z,96793.62
2018-05-02T01:40:25.054Z,96792.03
2018-05-02T01:42:54.303Z,96797.19
2018-05-02T01:45:23.429Z,96796.95
2018-05-02T01:47:52.548Z,96793.78
2018-05-02T01:50:25.384Z,96783.24
2018-05-02T01:52:55.380Z,96790.77
2018-05-02T01:55:25.082Z,96787.98
2018-05-02T01:57:59.188Z,96783.61
2018-05-02T02:00:29.033Z,96787.14
2018-05-02T02:02:59.167Z,96785.75
2018-05-02T02:05:28.852Z,96772.60
2018-05-02T02:07:58.035Z,96769.26
2018-05-02T02:10:27.453Z,96776.21
2018-05-02T02:12:56.862Z,96762.87
2018-05-02T02:15:27.345Z,96761.08
2018-05-02T02:17:57.276Z,96750.55
2018-05-02T02:20:27.266Z,96752.13
2018-05-02T02:22:57.076Z,96736.20
2018-05-02T02:25:26.322Z,96724.64
2018-05-02T02:27:55.692Z,96718.48
2018-05-02T02:30:27.927Z,96712.12
2018-05-02T02:32:57.968Z,96703.14
2018-05-02T02:35:27.048Z,96693.37
2018-05-02T02:37:56.764Z,96689.84
2018-05-02T02:40:26.492Z,96677.31
2018-05-02T02:42:57.269Z,96668.58
2018-05-02T02:45:26.615Z,96654.44
2018-05-02T02:47:55.650Z,96640.33
2018-05-02T02:50:25.543Z,96623.64
2018-05-02T02:52:54.839Z,96624.04
2018-05-02T02:55:24.373Z,96623.21
2018-05-02T02:57:55.167Z,96623.21
2018-05-02T03:00:26.639Z,96635.16
2018-05-02T03:02:55.820Z,96636.95
2018-05-02T03:05:25.024Z,96626.42
2018-05-02T03:07:54.252Z,96628.38
2018-05-02T03:10:23.952Z,96635.73
2018-05-02T03:12:53.866Z,96632.95
2018-05-02T03:15:23.469Z,96629.77
2018-05-02T03:17:52.764Z,96624.00
2018-05-02T03:20:23.838Z,96626.39
2018-05-02T03:22:53.822Z,96633.50
2018-05-02T03:25:22.845Z,96629.17
2018-05-02T03:27:53.010Z,96621.98
2018-05-02T03:30:23.012Z,96617.02
2018-05-02T03:32:52.904Z,96628.30
2018-05-02T03:35:25.610Z,96651.34
2018-05-02T03:37:55.001Z,96668.80
2018-05-02T03:40:24.795Z,96674.35
2018-05-02T03:42:54.247Z,96664.19
2018-05-02T03:45:24.027Z,96653.06
2018-05-02T03:47:53.612Z,96636.14
2018-05-02T03:50:23.006Z,96629.98
2018-05-02T03:52:52.851Z,96639.52
2018-05-02T03:55:23.169Z,96627.20
2018-05-02T03:57:52.274Z,96625.81
2018-05-02T04:00:40.276Z,96601.75
2018-05-02T04:09:27.551Z,96609.82
2018-05-02T04:11:56.804Z,96614.35
2018-05-02T04:14:25.883Z,96604.22
2018-05-02T04:16:55.801Z,96605.42
2018-05-02T04:19:25.384Z,96599.85
2018-05-02T04:21:55.031Z,96592.34
2018-05-02T04:24:24.237Z,96595.88
2018-05-02T04:26:53.895Z,96588.34
2018-05-02T04:29:22.533Z,96574.27
2018-05-02T04:31:51.553Z,96559.38
2018-05-02T04:34:21.517Z,96550.03
2018-05-02T04:36:58.818Z,96550.20
2018-05-02T04:39:27.870Z,96541.66
2018-05-02T04:41:56.949Z,96539.88
2018-05-02T04:44:26.366Z,96533.72
2018-05-02T04:46:55.693Z,96541.47
2018-05-02T04:49:25.029Z,96546.83
2018-05-02T04:51:54.590Z,96542.06
2018-05-02T04:54:23.892Z,96545.03
2018-05-02T04:56:52.888Z,96539.05
2018-05-02T04:59:21.453Z,96533.29
2018-05-02T05:01:50.535Z,96536.47
2018-05-02T05:04:19.582Z,96533.45
2018-05-02T05:06:48.869Z,96534.45
2018-05-02T05:09:23.222Z,96532.06
2018-05-02T05:11:52.677Z,96535.84
2018-05-02T05:14:22.031Z,96533.25
2018-05-02T05:16:51.242Z,96541.39
2018-05-02T05:19:20.603Z,96529.71
2018-05-02T05:21:49.623Z,96530.87
2018-05-02T05:24:18.856Z,96521.14
2018-05-02T05:26:48.003Z,96513.16
2018-05-02T05:29:17.316Z,96516.73
2018-05-02T05:31:46.516Z,96505.22
2018-05-02T05:34:15.538Z,96506.61
2018-05-02T05:36:44.600Z,96510.78
2018-05-02T05:39:13.725Z,96511.15
2018-05-02T05:41:43.561Z,96511.58
2018-05-02T05:44:12.698Z,96509.95
2018-05-02T05:46:42.299Z,96502.44
2018-05-02T05:49:11.910Z,96503.40
2018-05-02T05:51:40.893Z,96512.00
2018-05-02T05:54:09.590Z,96509.42
2018-05-02T05:56:40.166Z,96509.42
2018-05-02T05:59:10.241Z,96509.06
2018-05-02T06:01:39.616Z,96505.91
2018-05-02T06:04:08.946Z,96506.94
2018-05-02T06:06:38.579Z,96506.14
2018-05-02T06:09:07.840Z,96504.16
2018-05-02T06:11:36.955Z,96498.37
2018-05-02T06:14:07.692Z,96491.22
2018-05-02T06:16:37.039Z,96487.84
2018-05-02T06:19:06.311Z,96485.26
2018-05-02T06:21:36.975Z,96489.59
2018-05-02T06:24:06.455Z,96492.11
2018-05-02T06:26:35.515Z,96494.27
2018-05-02T06:29:04.753Z,96494.20
2018-05-02T06:31:34.270Z,96488.97
2018-05-02T06:34:09.961Z,96492.94
2018-05-02T06:36:39.733Z,96495.92
2018-05-02T06:39:09.617Z,96500.32
2018-05-02T06:41:40.346Z,96496.75
2018-05-02T06:44:09.740Z,96507.73
2018-05-02T06:46:39.770Z,96511.70
2018-05-02T06:49:09.273Z,96513.13
2018-05-02T06:51:38.558Z,96508.20
2018-05-02T06:54:08.695Z,96513.99
2018-05-02T06:56:38.359Z,96505.84
2018-05-02T06:59:08.319Z,96513.99
2018-05-02T07:01:37.737Z,96519.55
2018-05-02T07:04:06.814Z,96523.72
2018-05-02T07:06:35.818Z,96522.16
2018-05-02T07:09:05.006Z,96519.78
2018-05-02T07:11:34.524Z,96523.16
2018-05-02T07:14:04.245Z,96531.50
2018-05-02T07:16:34.362Z,96531.47
2018-05-02T07:19:05.398Z,96528.89
2018-05-02T07:21:37.159Z,96526.34
2018-05-02T07:24:07.225Z,96523.55
2018-05-02T07:26:39.048Z,96528.13
2018-05-02T07:29:10.301Z,96526.73
2018-05-02T07:31:44.235Z,96525.61
2018-05-02T07:34:14.044Z,96524.65
2018-05-02T07:36:43.261Z,96518.33
2018-05-02T07:39:12.699Z,96526.07
2018-05-02T07:41:43.402Z,96529.08
2018-05-02T07:44:12.963Z,96522.92
2018-05-02T07:46:42.079Z,96523.36
2018-05-02T07:49:11.551Z,96523.55
2018-05-02T07:51:42.258Z,96523.55
2018-05-02T07:54:11.653Z,96521.00
2018-05-02T07:56:41.647Z,96522.59
2018-05-02T07:59:28.583Z,96517.89
2018-05-02T08:05:23.807Z,96520.27
2018-05-02T08:07:53.619Z,96518.88
2018-05-02T08:10:22.771Z,96514.71
2018-05-02T08:12:51.873Z,96511.94
2018-05-02T08:18:02.500Z,96514.52
2018-05-02T08:20:32.071Z,96513.13
2018-05-02T08:23:01.874Z,96508.95
2018-05-02T08:25:31.014Z,96512.52
2018-05-02T08:28:00.506Z,96504.78
2018-05-02T08:30:29.545Z,96502.56
2018-05-02T08:32:58.854Z,96512.00
2018-05-02T08:35:29.007Z,96513.80
2018-05-02T08:37:59.246Z,96521.87
2018-05-02T08:40:28.498Z,96520.28
2018-05-02T08:42:57.574Z,96529.05
2018-05-02T08:45:26.623Z,96527.89
2018-05-02T08:47:55.819Z,96520.58
2018-05-02T08:50:29.068Z,96530.34
2018-05-02T08:52:58.412Z,96518.22
2018-05-02T08:55:27.721Z,96517.16
2018-05-02T08:57:57.656Z,96524.02
2018-05-02T09:00:27.258Z,96527.82
2018-05-02T09:02:56.610Z,96525.67
2018-05-02T09:05:25.665Z,96527.19
2018-05-02T09:07:54.845Z,96513.11
2018-05-02T09:10:23.966Z,96511.13
2018-05-02T09:12:53.062Z,96519.44
2018-05-02T09:15:22.245Z,96509.05
2018-05-02T09:17:51.737Z,96507.73
2018-05-02T09:20:22.245Z,96512.04
2018-05-02T09:22:51.585Z,96504.45
2018-05-02T09:25:20.680Z,96502.73
2018-05-02T09:27:49.876Z,96499.75
2018-05-02T09:30:22.811Z,96496.30
2018-05-02T09:32:51.825Z,96488.10
2018-05-02T09:35:21.565Z,96487.81
2018-05-02T09:37:50.582Z,96487.48
2018-05-02T09:40:21.645Z,96487.58
2018-05-02T09:42:50.740Z,96493.00
2018-05-02T09:45:19.897Z,96491.69
2018-05-02T09:47:48.487Z,96500.32
2018-05-02T09:50:19.799Z,96492.81
2018-05-02T09:52:48.881Z,96494.89
2018-05-02T09:55:18.772Z,96490.09
2018-05-02T09:57:47.968Z,96485.76
2018-05-02T10:00:19.600Z,96484.73
2018-05-02T10:02:48.614Z,96488.61
2018-05-02T10:05:19.564Z,96494.99
2018-05-02T10:07:48.834Z,96487.41
2018-05-02T10:10:20.124Z,96491.34
2018-05-02T10:12:49.668Z,96487.97
2018-05-02T10:15:28.966Z,96488.94
2018-05-02T10:23:15.459Z,96492.12
2018-05-02T10:25:46.829Z,96493.22
2018-05-02T10:28:17.497Z,96496.30
2018-05-02T10:30:47.452Z,96487.84
2018-05-02T10:33:17.251Z,96493.03
2018-05-02T10:35:46.793Z,96489.33
2018-05-02T10:38:16.450Z,96484.16
2018-05-02T10:40:46.639Z,96475.39
2018-05-02T10:43:18.609Z,96473.61
2018-05-02T10:45:50.812Z,96470.99
2018-05-02T10:48:26.629Z,96468.41
2018-05-02T10:50:57.681Z,96465.27
2018-05-02T10:53:35.488Z,96469.44
2018-05-02T10:56:04.947Z,96461.26
2018-05-02T10:58:33.675Z,96461.09
2018-05-02T11:01:03.356Z,96460.30
2018-05-02T11:03:33.456Z,96458.52
2018-05-02T11:06:03.425Z,96454.80
2018-05-02T11:12:05.712Z,96455.88
2018-05-02T11:14:36.696Z,96460.48
2018-05-02T11:17:06.340Z,96461.50
2018-05-02T11:19:36.446Z,96451.27
2018-05-02T11:22:06.573Z,96453.25
2018-05-02T11:24:36.796Z,96452.12
2018-05-02T11:27:05.949Z,96454.53
2018-05-02T11:29:36.769Z,96449.56
2018-05-02T11:32:06.158Z,96447.41
2018-05-02T11:34:36.944Z,96441.70
2018-05-02T11:37:06.599Z,96441.16
2018-05-02T11:39:36.845Z,96440.94
2018-05-02T11:42:06.574Z,96437.39
2018-05-02T11:44:37.721Z,96440.63
2018-05-02T11:47:07.459Z,96443.60
2018-05-02T11:49:36.998Z,96434.86
2018-05-02T11:52:08.354Z,96436.11
2018-05-02T11:54:38.651Z,96431.91
2018-05-02T11:57:08.583Z,96432.08
2018-05-02T11:59:38.823Z,96423.73
2018-05-02T12:02:08.675Z,96425.92
2018-05-02T12:04:38.655Z,96427.88
2018-05-02T12:07:15.418Z,96424.11
2018-05-02T12:09:44.992Z,96422.48
2018-05-02T12:12:20.822Z,96417.66
2018-05-02T12:14:50.431Z,96418.03
2018-05-02T12:17:19.858Z,96418.00
2018-05-02T12:19:50.745Z,96413.38
2018-05-02T12:22:19.921Z,96412.35
2018-05-02T12:24:50.574Z,96419.73
2018-05-02T13:01:21.753Z,96395.47
2018-05-02T13:04:11.520Z,96389.39
2018-05-02T13:15:32.819Z,96383.41
2018-05-02T13:18:02.452Z,96384.34
2018-05-02T13:20:32.484Z,96375.66
2018-05-02T13:23:01.879Z,96370.78
2018-05-02T13:25:32.774Z,96367.06
2018-05-02T13:28:01.976Z,96363.70
2018-05-02T13:30:32.005Z,96354.59
2018-05-02T13:33:01.935Z,96352.63
2018-05-02T13:35:31.199Z,96343.33
2018-05-02T13:38:00.908Z,96338.38
2018-05-02T13:40:30.503Z,96333.64
2018-05-02T13:42:59.907Z,96338.66
2018-05-02T13:45:29.452Z,96329.77
2018-05-02T13:47:58.812Z,96332.42
2018-05-02T13:50:28.685Z,96335.66
2018-05-02T13:52:59.308Z,96330.23
2018-05-02T13:55:29.498Z,96333.79
2018-05-02T13:57:59.816Z,96331.78
2018-05-02T14:00:29.450Z,96331.61
2018-05-02T14:02:59.588Z,96319.90
2018-05-02T14:05:31.594Z,96321.94
2018-05-02T14:08:01.656Z,96320.37
2018-05-02T14:10:31.481Z,96322.94
2018-05-02T14:13:01.423Z,96319.97
2018-05-02T14:15:30.792Z,96316.77
2018-05-02T14:18:00.475Z,96315.20
2018-05-02T14:20:30.455Z,96310.81
2018-05-02T14:23:00.817Z,96313.55
2018-05-02T14:25:30.368Z,96311.95
2018-05-02T14:27:59.774Z,96308.20
2018-05-02T14:30:30.278Z,96304.83
2018-05-02T14:32:59.809Z,96298.47
2018-05-02T14:35:28.878Z,96296.68
2018-05-02T14:37:58.503Z,96304.83
2018-05-02T14:40:27.867Z,96305.25
2018-05-02T14:42:57.515Z,96306.44
2018-05-02T14:45:26.866Z,96317.12
2018-05-02T14:47:56.480Z,96316.59
2018-05-02T14:50:26.807Z,96326.31
2018-05-02T14:52:57.643Z,96328.08
2018-05-02T14:55:28.558Z,96315.33
2018-05-02T14:57:58.641Z,96313.30
2018-05-02T15:00:28.488Z,96316.16
2018-05-02T15:02:58.454Z,96304.60
2018-05-02T15:05:27.821Z,96307.78
2018-05-02T15:07:58.718Z,96305.97
2018-05-02T15:10:28.652Z,96302.79
2018-05-02T15:12:57.810Z,96309.75
2018-05-02T15:15:27.371Z,96317.09
2018-05-02T15:17:57.817Z,96318.69
2018-05-02T15:20:27.427Z,96318.91
2018-05-02T15:22:56.819Z,96319.31
2018-05-02T15:25:26.976Z,96314.73
2018-05-02T15:27:56.793Z,96323.88
2018-05-02T15:30:26.344Z,96322.09
2018-05-02T15:32:56.950Z,96319.73
2018-05-02T15:35:25.955Z,96316.18
2018-05-02T15:37:54.947Z,96311.02
2018-05-02T15:40:23.762Z,96286.54
2018-05-02T15:42:52.946Z,96279.19
2018-05-02T15:45:23.415Z,96263.30
2018-05-02T15:47:52.832Z,96259.27
2018-05-02T15:50:22.660Z,96253.92
2018-05-02T15:52:53.553Z,96254.52
2018-05-02T15:55:24.426Z,96261.28
2018-05-02T15:57:54.476Z,96258.45
2018-05-02T16:00:23.788Z,96249.31
2018-05-02T16:02:52.882Z,96252.86
2018-05-02T16:05:27.452Z,96249.48
2018-05-02T16:07:57.434Z,96269.95
2018-05-02T16:10:29.872Z,96277.88
2018-05-02T16:12:59.872Z,96279.27
2018-05-02T16:15:29.560Z,96272.70
2018-05-02T16:18:04.075Z,96256.61
2018-05-02T16:20:33.950Z,96258.00
2018-05-02T16:23:02.956Z,96256.02
2018-05-02T16:25:33.806Z,96260.66
2018-05-02T16:28:03.452Z,96262.84
2018-05-02T16:30:33.911Z,96269.25
2018-05-02T16:33:02.858Z,96260.52
2018-05-02T16:35:33.967Z,96253.05
2018-05-02T16:38:02.666Z,96257.63
2018-05-02T16:40:31.832Z,96259.19
2018-05-02T16:43:01.536Z,96254.23
2018-05-02T16:45:30.843Z,96231.38
2018-05-02T16:48:00.240Z,96223.84
2018-05-02T16:50:29.753Z,96206.10
2018-05-02T16:52:58.820Z,96171.69
2018-05-02T16:55:28.753Z,96148.64
2018-05-02T16:57:57.887Z,96149.78
2018-05-02T17:00:27.385Z,96172.45
2018-05-02T17:02:56.792Z,96168.88
2018-05-02T17:06:39.529Z,96178.61
2018-05-02T17:09:08.769Z,96194.09
2018-05-02T17:11:38.550Z,96215.15
2018-05-02T17:14:07.797Z,96226.88
2018-05-02T17:16:37.591Z,96235.22
2018-05-02T17:19:06.863Z,96243.95
2018-05-02T17:21:36.481Z,96252.47
2018-05-02T17:24:06.771Z,96265.42
2018-05-02T17:26:36.779Z,96248.30
2018-05-02T17:29:05.948Z,96246.12
2018-05-02T17:31:35.701Z,96225.06
2018-05-02T17:34:04.815Z,96220.67
2018-05-02T17:39:13.828Z,96222.41
2018-05-02T17:41:43.505Z,96219.03
2018-05-02T17:44:13.263Z,96203.14
2018-05-02T17:46:50.053Z,96204.53
2018-05-02T17:49:22.454Z,96199.57
2018-05-02T17:51:59.399Z,96192.37
2018-05-02T17:54:29.669Z,96189.79
2018-05-02T17:57:00.824Z,96184.63
2018-05-02T17:59:32.717Z,96199.52
2018-05-02T18:02:01.851Z,96210.22
2018-05-02T18:04:31.755Z,96206.05
2018-05-02T18:07:00.937Z,96197.52
2018-05-02T18:09:29.685Z,96204.48
2018-05-02T18:11:59.775Z,96198.50
2018-05-02T18:14:28.948Z,96199.30
2018-05-02T18:16:58.537Z,96195.13
2018-05-02T18:19:28.448Z,96195.52
2018-05-02T18:21:59.438Z,96200.31
2018-05-02T18:24:29.442Z,96200.71
2018-05-02T18:26:58.775Z,96207.89
2018-05-02T18:29:27.846Z,96205.50
2018-05-02T18:31:57.238Z,96206.89
2018-05-02T18:34:27.448Z,96212.06
2018-05-02T18:36:57.455Z,96219.58
2018-05-02T18:39:27.782Z,96219.95
2018-05-02T18:41:57.220Z,96215.59
2018-05-02T18:44:27.790Z,96216.75
2018-05-02T18:46:57.500Z,96220.92
2018-05-02T18:49:28.239Z,96220.33
2018-05-02T18:51:58.952Z,96213.55
2018-05-02T18:54:27.683Z,96219.09
2018-05-02T18:56:57.350Z,96220.28
2018-05-02T18:59:26.887Z,96221.27
2018-05-02T19:01:56.864Z,96219.69
2018-05-02T19:04:26.557Z,96219.86
2018-05-02T19:06:56.477Z,96218.27
2018-05-02T19:09:25.946Z,96212.31
2018-05-02T19:11:56.739Z,96221.45
2018-05-02T19:14:27.467Z,96218.27
2018-05-02T19:16:57.407Z,96219.46
2018-05-02T19:19:32.722Z,96231.83
2018-05-02T19:22:02.593Z,96233.81
2018-05-02T19:24:38.549Z,96241.98
2018-05-02T19:27:08.860Z,96240.98
2018-05-02T19:29:39.794Z,96241.59
2018-05-02T19:32:14.800Z,96244.94
2018-05-02T19:34:44.050Z,96242.17
2018-05-02T19:37:14.555Z,96243.56
2018-05-02T19:39:50.668Z,96243.00
2018-05-02T19:42:25.827Z,96246.77
2018-05-02T19:44:55.387Z,96244.77
2018-05-02T19:47:25.495Z,96242.35
2018-05-02T19:49:56.565Z,96233.39
2018-05-02T19:52:33.508Z,96231.45
2018-05-02T19:55:06.569Z,96233.44
2018-05-02T19:57:35.865Z,96222.55
2018-05-02T20:00:08.170Z,96217.38
2018-05-02T20:05:55.374Z,96203.27
2018-05-02T20:14:30.486Z,96197.31
2018-05-02T20:17:02.334Z,96191.53
2018-05-02T20:19:36.498Z,96188.13
2018-05-02T20:22:05.958Z,96195.28
2018-05-02T20:24:38.493Z,96197.64
2018-05-02T20:27:10.711Z,96196.66
2018-05-02T20:29:45.026Z,96183.91
2018-05-02T20:32:15.472Z,96186.89
2018-05-02T20:34:45.470Z,96194.22
2018-05-02T20:37:14.976Z,96193.59
2018-05-02T20:39:43.678Z,96182.45
2018-05-02T20:42:12.866Z,96175.09
2018-05-02T20:44:42.533Z,96174.30
2018-05-02T20:47:15.207Z,96170.09
2018-05-02T20:49:44.821Z,96178.22
2018-05-02T20:52:14.008Z,96175.83
2018-05-02T20:54:43.752Z,96169.88
2018-05-02T20:57:13.454Z,96184.55
2018-05-02T20:59:44.730Z,96180.77
2018-05-02T21:02:14.538Z,96183.92
2018-05-02T22:07:04.703Z,96196.29
2018-05-02T22:09:34.477Z,96186.95
2018-05-02T22:12:05.694Z,96183.55
2018-05-02T22:14:35.966Z,96178.59
2018-05-02T22:17:08.693Z,96179.36
2018-05-02T22:19:43.337Z,96184.36
2018-05-02T22:25:05.701Z,96196.86
2018-05-02T22:27:37.740Z,96175.42
2018-05-02T22:30:10.349Z,96175.79
2018-05-02T22:32:40.490Z,96174.17
2018-05-02T22:35:10.660Z,96182.73
2018-05-02T23:06:43.467Z,96170.19
2018-05-02T23:09:13.991Z,96170.19
2018-05-02T23:11:42.731Z,96164.59
2018-05-02T23:14:12.760Z,96160.23
2018-05-02T23:16:42.696Z,96156.47
2018-05-02T23:19:13.435Z,96159.81
2018-05-02T23:21:43.633Z,96154.45
2018-05-02T23:24:13.800Z,96142.97
2018-05-02T23:26:43.795Z,96137.18
2018-05-02T23:29:14.749Z,96134.80
2018-05-02T23:31:45.855Z,96133.02
2018-05-02T23:34:16.095Z,96135.40
2018-05-02T23:36:46.639Z,96131.03
2018-05-02T23:39:16.717Z,96134.38
2018-05-02T23:41:47.971Z,96131.77
2018-05-02T23:44:17.637Z,96131.60
2018-05-02T23:46:47.450Z,96129.98
2018-05-02T23:49:17.613Z,96127.60
2018-05-02T23:51:46.918Z,96131.77
2018-05-02T23:54:16.640Z,96129.39
2018-05-02T23:56:47.545Z,96117.88
2018-05-02T23:59:17.469Z,96125.59
